createdAt,value
2023-03-22T00:00:17.612Z,68.67
2023-03-22T00:03:06.863Z,65.67
2023-03-22T00:05:35.810Z,67.33
2023-03-22T00:08:07.272Z,63.75
2023-03-22T00:10:38.181Z,60.75
2023-03-22T00:13:10.810Z,63.75
2023-03-22T00:15:39.793Z,63.00
2023-03-22T00:18:08.283Z,63.25
2023-03-22T00:20:39.537Z,60.25
2023-03-22T00:23:09.168Z,56.50
2023-03-22T00:25:38.213Z,53.25
2023-03-22T00:28:08.176Z,50.00
2023-03-22T00:30:37.531Z,41.75
2023-03-22T00:33:06.892Z,50.75
2023-03-22T00:35:36.152Z,52.75
2023-03-22T00:38:14.235Z,49.25
2023-03-22T00:40:44.285Z,40.25
2023-03-22T00:43:14.632Z,44.75
2023-03-22T00:45:43.627Z,37.25
2023-03-22T00:48:13.246Z,40.00
2023-03-22T00:50:42.415Z,49.50
2023-03-22T00:53:11.118Z,42.25
2023-03-22T00:55:40.156Z,44.75
2023-03-22T00:58:08.894Z,23.25
2023-03-22T01:00:39.520Z,31.50
2023-03-22T01:03:08.769Z,44.00
2023-03-22T01:05:38.902Z,37.75
2023-03-22T01:08:09.460Z,45.75
2023-03-22T01:10:39.297Z,44.25
2023-03-22T01:13:08.884Z,51.00
2023-03-22T01:15:39.340Z,52.00
2023-03-22T01:18:07.937Z,58.50
2023-03-22T01:20:37.513Z,56.75
2023-03-22T01:23:06.312Z,58.00
2023-03-22T01:25:35.222Z,59.50
2023-03-22T01:28:03.904Z,48.25
2023-03-22T01:30:33.214Z,57.50
2023-03-22T01:33:03.308Z,59.75
2023-03-22T01:35:34.106Z,60.00
2023-03-22T01:38:02.852Z,60.00
2023-03-22T01:40:31.856Z,58.00
2023-03-22T01:43:01.969Z,58.25
2023-03-22T01:45:41.595Z,58.25
2023-03-22T01:48:20.939Z,57.50
2023-03-22T01:50:59.862Z,54.00
2023-03-22T01:53:33.702Z,52.25
2023-03-22T01:56:03.864Z,53.00
2023-03-22T01:58:37.160Z,52.50
2023-03-22T02:01:09.633Z,60.25
2023-03-22T02:03:52.411Z,57.00
2023-03-22T02:06:22.518Z,61.25
2023-03-22T02:08:58.546Z,57.25
2023-03-22T02:11:33.530Z,54.50
2023-03-22T02:14:27.488Z,57.50
2023-03-22T02:17:22.963Z,40.75
2023-03-22T02:20:38.423Z,52.25
2023-03-22T02:23:44.241Z,55.00
2023-03-22T02:26:46.975Z,44.50
2023-03-22T02:29:22.415Z,55.50
2023-03-22T02:32:34.157Z,54.00
2023-03-22T02:35:35.057Z,53.75
2023-03-22T02:38:37.776Z,54.00
2023-03-22T02:41:15.712Z,44.75
2023-03-22T02:43:56.832Z,49.25
2023-03-22T02:46:31.930Z,40.00
2023-03-22T02:49:07.879Z,53.75
2023-03-22T02:51:42.518Z,53.75
2023-03-22T02:54:19.664Z,48.50
2023-03-22T02:56:55.314Z,46.00
2023-03-22T02:59:27.222Z,46.75
2023-03-22T03:01:59.365Z,47.25
2023-03-22T03:04:32.255Z,49.50
2023-03-22T03:07:07.232Z,42.50
2023-03-22T03:09:37.718Z,47.75
2023-03-22T03:12:16.023Z,51.00
2023-03-22T03:14:44.875Z,47.75
2023-03-22T03:17:26.875Z,44.50
2023-03-22T03:20:12.707Z,43.25
2023-03-22T03:22:56.217Z,50.75
2023-03-22T03:25:35.189Z,45.25
2023-03-22T03:28:11.462Z,46.75
2023-03-22T03:30:48.087Z,49.75
2023-03-22T03:33:21.638Z,51.75
2023-03-22T03:35:56.020Z,46.25
2023-03-22T03:38:30.090Z,42.25
2023-03-22T03:41:05.056Z,48.00
2023-03-22T03:43:37.281Z,40.50
2023-03-22T03:46:08.835Z,52.25
2023-03-22T03:48:43.661Z,41.50
2023-03-22T03:51:12.658Z,37.25
2023-03-22T03:53:42.233Z,33.50
2023-03-22T03:56:11.749Z,46.50
2023-03-22T03:58:47.054Z,45.00
2023-03-22T04:01:19.693Z,45.50
2023-03-22T04:03:59.185Z,39.75
2023-03-22T04:06:43.797Z,48.00
2023-03-22T04:09:18.333Z,48.00
2023-03-22T04:11:51.711Z,41.50
2023-03-22T04:14:22.379Z,43.00
2023-03-22T04:16:54.479Z,41.50
2023-03-22T04:19:24.872Z,49.25
2023-03-22T04:21:53.824Z,54.00
2023-03-22T04:24:23.715Z,52.75
2023-03-22T04:26:54.985Z,62.50
2023-03-22T04:29:32.385Z,58.25
2023-03-22T04:32:17.040Z,53.75
2023-03-22T04:34:46.444Z,49.75
2023-03-22T04:37:18.261Z,54.75
2023-03-22T04:40:09.367Z,51.00
2023-03-22T04:42:48.096Z,57.25
2023-03-22T04:45:29.296Z,52.75
2023-03-22T04:48:03.374Z,63.00
2023-03-22T04:50:34.174Z,62.00
2023-03-22T04:53:05.833Z,56.25
2023-03-22T04:55:35.292Z,55.00
2023-03-22T04:58:04.198Z,60.75
2023-03-22T05:00:34.533Z,57.25
2023-03-22T05:03:04.493Z,24.75
2023-03-22T05:05:51.085Z,55.00
2023-03-22T05:08:21.359Z,65.00
2023-03-22T05:10:52.244Z,72.33
2023-03-22T05:13:22.055Z,62.00
2023-03-22T05:15:52.648Z,56.75
2023-03-22T05:18:26.904Z,52.50
2023-03-22T05:20:59.746Z,54.75
2023-03-22T05:23:28.442Z,86.25
2023-03-22T05:26:01.666Z,67.33
2023-03-22T05:28:31.946Z,170.50
2023-03-22T05:31:25.388Z,61.00
2023-03-22T05:33:59.049Z,58.75
2023-03-22T05:36:31.005Z,54.25
2023-03-22T05:39:16.046Z,59.00
2023-03-22T05:41:46.613Z,58.75
2023-03-22T05:44:15.990Z,59.50
2023-03-22T05:46:56.259Z,58.00
2023-03-22T05:49:31.845Z,55.25
2023-03-22T05:52:04.435Z,56.50
2023-03-22T05:54:47.190Z,56.50
2023-03-22T05:57:17.142Z,56.00
2023-03-22T05:59:45.765Z,50.75
2023-03-22T06:02:22.443Z,49.75
2023-03-22T06:04:52.561Z,54.25
2023-03-22T06:07:22.702Z,45.25
2023-03-22T06:09:59.162Z,46.50
2023-03-22T06:12:31.419Z,56.75
2023-03-22T06:15:18.631Z,49.25
2023-03-22T06:18:12.993Z,47.50
2023-03-22T06:20:45.747Z,54.25
2023-03-22T06:23:22.924Z,46.75
2023-03-22T06:25:51.682Z,45.25
2023-03-22T06:28:21.490Z,53.00
2023-03-22T06:30:52.752Z,52.25
2023-03-22T06:33:32.143Z,21.50
2023-03-22T06:36:07.584Z,48.25
2023-03-22T06:38:52.462Z,45.50
2023-03-22T06:41:21.551Z,50.50
2023-03-22T06:43:52.801Z,43.25
2023-03-22T06:46:41.507Z,52.50
2023-03-22T06:49:29.351Z,45.25
2023-03-22T06:51:59.383Z,48.50
2023-03-22T06:54:29.375Z,44.25
2023-03-22T06:56:57.997Z,43.75
2023-03-22T06:59:27.258Z,38.25
2023-03-22T07:01:56.045Z,33.75
2023-03-22T07:04:25.795Z,37.75
2023-03-22T07:06:56.883Z,45.25
2023-03-22T07:09:40.341Z,50.50
2023-03-22T07:12:10.030Z,45.25
2023-03-22T07:14:39.648Z,46.25
2023-03-22T07:17:46.566Z,31.25
2023-03-22T07:20:16.324Z,36.75
2023-03-22T07:22:47.051Z,31.75
2023-03-22T07:25:16.231Z,31.00
2023-03-22T07:27:46.203Z,34.75
2023-03-22T07:30:16.023Z,43.50
2023-03-22T07:32:47.981Z,35.00
2023-03-22T07:35:18.966Z,37.25
2023-03-22T07:37:52.243Z,28.25
2023-03-22T07:40:27.200Z,31.00
2023-03-22T07:42:58.992Z,36.25
2023-03-22T07:45:46.764Z,39.50
2023-03-22T07:48:39.158Z,31.00
2023-03-22T07:51:43.327Z,21.25
2023-03-22T07:54:22.734Z,36.00
2023-03-22T07:56:59.886Z,39.50
2023-03-22T07:59:28.871Z,39.00
2023-03-22T08:01:58.413Z,37.75
2023-03-22T08:04:32.085Z,40.75
2023-03-22T08:07:11.597Z,34.50
2023-03-22T08:09:41.669Z,36.50
2023-03-22T08:12:10.742Z,37.00
2023-03-22T08:14:40.934Z,35.50
2023-03-22T08:17:17.354Z,38.75
2023-03-22T08:19:46.766Z,43.50
2023-03-22T08:22:26.090Z,42.25
2023-03-22T08:25:19.375Z,35.00
2023-03-22T08:27:49.196Z,45.25
2023-03-22T08:30:18.039Z,37.25
2023-03-22T08:32:47.139Z,36.50
2023-03-22T08:35:15.788Z,34.00
2023-03-22T08:37:44.820Z,32.50
2023-03-22T08:40:13.948Z,38.25
2023-03-22T08:42:48.916Z,45.50
2023-03-22T08:45:18.281Z,42.00
2023-03-22T08:47:54.843Z,41.75
2023-03-22T08:50:26.974Z,41.00
2023-03-22T08:53:13.878Z,41.50
2023-03-22T08:55:46.395Z,39.00
2023-03-22T08:58:19.633Z,43.50
2023-03-22T09:01:07.577Z,47.50
2023-03-22T09:03:45.777Z,48.00
2023-03-22T09:06:15.144Z,42.25
2023-03-22T09:08:45.610Z,45.50
2023-03-22T09:11:18.042Z,48.00
2023-03-22T09:13:51.273Z,47.00
2023-03-22T09:16:20.843Z,49.00
2023-03-22T09:18:50.466Z,45.25
2023-03-22T09:21:23.105Z,53.50
2023-03-22T09:23:55.784Z,50.50
2023-03-22T09:26:31.487Z,47.75
2023-03-22T09:29:03.301Z,50.50
2023-03-22T09:31:32.228Z,47.00
2023-03-22T09:34:16.413Z,49.00
2023-03-22T09:36:45.469Z,48.50
2023-03-22T09:39:16.541Z,48.50
2023-03-22T09:41:51.733Z,48.00
2023-03-22T09:44:29.759Z,48.25
2023-03-22T09:47:02.193Z,48.75
2023-03-22T09:49:52.952Z,47.00
2023-03-22T09:52:22.884Z,49.50
2023-03-22T09:54:53.200Z,44.25
2023-03-22T09:57:30.258Z,44.00
2023-03-22T10:00:11.844Z,45.50
2023-03-22T10:02:54.522Z,40.75
2023-03-22T10:05:30.808Z,50.50
2023-03-22T10:08:33.914Z,49.75
2023-03-22T10:11:03.916Z,49.25
2023-03-22T10:13:40.480Z,48.00
2023-03-22T10:16:14.898Z,46.50
2023-03-22T10:18:48.290Z,38.50
2023-03-22T10:21:20.375Z,44.50
2023-03-22T10:23:56.290Z,40.00
2023-03-22T10:26:30.563Z,39.00
2023-03-22T10:29:03.991Z,41.00
2023-03-22T10:31:35.851Z,41.25
2023-03-22T10:34:08.043Z,42.75
2023-03-22T10:36:40.491Z,37.75
2023-03-22T10:39:18.379Z,34.25
2023-03-22T10:41:49.264Z,30.25
2023-03-22T10:44:21.341Z,28.00
2023-03-22T10:46:53.805Z,32.50
2023-03-22T10:49:28.523Z,27.75
2023-03-22T10:52:01.485Z,29.50
2023-03-22T10:54:30.421Z,32.50
2023-03-22T10:56:59.449Z,32.50
2023-03-22T10:59:46.025Z,33.50
2023-03-22T11:02:23.079Z,35.50
2023-03-22T11:04:53.876Z,28.00
2023-03-22T11:07:32.900Z,29.75
2023-03-22T11:10:24.300Z,34.00
2023-03-22T11:12:56.152Z,32.00
2023-03-22T11:15:28.427Z,26.50
2023-03-22T11:18:06.228Z,28.50
2023-03-22T11:20:36.300Z,22.25
2023-03-22T11:23:07.050Z,24.50
2023-03-22T11:25:38.074Z,34.75
2023-03-22T11:28:17.123Z,28.25
2023-03-22T11:31:00.684Z,26.25
2023-03-22T11:33:31.848Z,19.20
2023-03-22T11:36:03.494Z,18.00
2023-03-22T11:38:38.360Z,20.80
2023-03-22T11:41:13.059Z,19.20
2023-03-22T11:43:48.500Z,21.50
2023-03-22T11:46:20.088Z,18.20
2023-03-22T11:48:52.995Z,15.75
2023-03-22T11:51:30.991Z,22.00
2023-03-22T11:54:07.971Z,25.50
2023-03-22T11:56:42.603Z,21.25
2023-03-22T11:59:16.765Z,25.50
2023-03-22T12:01:50.328Z,15.60
2023-03-22T12:04:26.826Z,16.80
2023-03-22T12:06:59.233Z,20.75
2023-03-22T12:09:39.245Z,19.40
2023-03-22T12:12:15.125Z,27.25
2023-03-22T12:14:51.376Z,20.40
2023-03-22T12:17:30.037Z,19.20
2023-03-22T12:20:08.636Z,19.75
2023-03-22T12:22:42.245Z,18.60
2023-03-22T12:25:17.068Z,21.80
2023-03-22T12:27:51.222Z,20.20
2023-03-22T12:30:25.404Z,22.80
2023-03-22T12:33:01.695Z,20.80
2023-03-22T12:35:36.268Z,17.80
2023-03-22T12:38:19.977Z,14.20
2023-03-22T12:40:50.996Z,11.00
2023-03-22T12:43:33.515Z,12.20
2023-03-22T12:46:09.687Z,15.00
2023-03-22T12:48:46.435Z,14.80
2023-03-22T12:51:17.530Z,11.60
2023-03-22T12:53:48.962Z,10.20
2023-03-22T12:56:21.365Z,11.40
2023-03-22T12:58:56.222Z,13.40
2023-03-22T13:01:35.747Z,16.40
2023-03-22T13:04:31.396Z,14.40
2023-03-22T13:07:13.027Z,19.00
2023-03-22T13:09:43.931Z,20.40
2023-03-22T13:12:32.749Z,23.50
2023-03-22T13:15:41.353Z,17.60
2023-03-22T13:18:38.741Z,20.25
2023-03-22T13:21:15.498Z,14.25
2023-03-22T13:24:01.859Z,17.20
2023-03-22T13:26:39.536Z,20.00
2023-03-22T13:29:12.569Z,17.60
2023-03-22T13:31:45.415Z,17.00
2023-03-22T13:34:19.058Z,18.50
2023-03-22T13:36:53.979Z,18.50
2023-03-22T13:39:25.604Z,22.50
2023-03-22T13:42:19.833Z,20.00
2023-03-22T13:44:59.175Z,17.00
2023-03-22T13:47:34.545Z,21.25
2023-03-22T13:50:11.272Z,18.00
2023-03-22T13:52:43.423Z,15.20
2023-03-22T13:55:41.321Z,18.40
2023-03-22T13:58:33.102Z,16.20
2023-03-22T14:01:02.792Z,18.00
2023-03-22T14:03:35.063Z,19.40
2023-03-22T14:06:15.868Z,23.75
2023-03-22T14:08:47.337Z,16.60
2023-03-22T14:11:26.515Z,14.80
2023-03-22T14:14:00.693Z,21.60
2023-03-22T14:16:37.905Z,15.00
2023-03-22T14:19:08.582Z,14.60
2023-03-22T14:21:40.458Z,16.60
